Time;durP1;ratioP1;P1;durP2;ratioP2;P2;SDS_P1;SDS_P2;PMS_P1;PMS_P2;Temp;Humidity;BMP_temperature;BMP_pressure;BME280_temperature;BME280_humidity;BME280_pressure;Samples;Min_cycle;Max_cycle;Signal;HPM_P1;HPM_P2
2023/07/27 00:03:34;;;;;;;1.27;0.73;;;;;;;;;;20800105;28;20215;-72
2023/07/27 00:13:36;;;;;;;0.93;0.57;;;;;;;;;;20810334;28;20601;-72
2023/07/27 00:23:38;;;;;;;1.23;0.67;;;;;;;;;;20764215;28;20235;-72
2023/07/27 00:33:40;;;;;;;0.90;0.50;;;;;;;;;;20808937;28;20780;-72
2023/07/27 00:43:41;;;;;;;1.57;0.93;;;;;;;;;;20792788;28;20223;-72
2023/07/27 00:53:43;;;;;;;1.47;0.77;;;18.40;99.90;;;;;;20783731;28;20239;-72
2023/07/27 01:03:45;;;;;;;1.37;0.70;;;;;;;;;;20777898;28;20215;-72
2023/07/27 01:13:56;;;;;;;1.30;0.60;;;;;;;;;;20769311;28;20314;-72
2023/07/27 01:24:16;;;;;;;2.20;0.80;;;;;;;;;;20777473;28;20771;-72
2023/07/27 01:34:22;;;;;;;0.73;0.50;;;;;;;;;;20779469;28;20605;-73
2023/07/27 01:44:25;;;;;;;0.90;0.50;;;;;;;;;;20748040;28;20566;-73
2023/07/27 01:54:27;;;;;;;0.57;0.50;;;15.10;99.90;;;;;;20827824;28;20292;-73
2023/07/27 02:04:29;;;;;;;1.60;0.60;;;;;;;;;;20817659;28;20260;-72
2023/07/27 02:14:44;;;;;;;1.30;0.77;;;;;;;;;;20793156;28;20273;-72
2023/07/27 02:24:45;;;;;;;0.77;0.50;;;;;;;;;;20773308;28;20277;-72
2023/07/27 02:34:47;;;;;;;0.63;0.57;;;;;;;;;;20755027;28;20660;-72
2023/07/27 02:44:51;;;;;;;1.10;0.60;;;;;;;;;;20772365;28;20216;-73
2023/07/27 02:54:53;;;;;;;0.70;0.40;;;;;;;;;;20822473;28;20231;-72
2023/07/27 03:04:55;;;;;;;0.70;0.40;;;;;;;;;;20939610;23;20225;-70
2023/07/27 03:14:58;;;;;;;0.80;0.50;;;;;;;;;;20925903;28;20245;-70
2023/07/27 03:25:00;;;;;;;0.70;0.50;;;;;;;;;;20955793;28;20280;-68
2023/07/27 03:35:02;;;;;;;0.90;0.60;;;;;;;;;;20933874;28;20234;-69
2023/07/27 03:45:04;;;;;;;0.63;0.50;;;18.00;99.90;;;;;;20909687;28;20229;-68
2023/07/27 03:55:06;;;;;;;1.57;0.70;;;;;;;;;;20950630;28;20221;-69
2023/07/27 04:05:08;;;;;;;0.80;0.60;;;;;;;;;;20837809;28;20222;-69
2023/07/27 04:15:11;;;;;;;0.90;0.63;;;;;;;;;;20829394;28;20207;-71
2023/07/27 04:25:12;;;;;;;0.90;0.60;;;;;;;;;;20812531;28;20225;-71
2023/07/27 04:35:14;;;;;;;1.00;0.60;;;;;;;;;;20811783;28;20222;-70
2023/07/27 04:45:16;;;;;;;2.67;0.67;;;;;;;;;;20826427;28;20255;-70
2023/07/27 04:55:18;;;;;;;1.10;0.70;;;;;;;;;;20860308;28;20631;-70
2023/07/27 05:05:20;;;;;;;0.63;0.43;;;;;;;;;;20843761;28;20279;-70
2023/07/27 05:15:22;;;;;;;2.93;0.80;;;;;;;;;;20803205;28;20264;-67
2023/07/27 05:25:24;;;;;;;0.97;0.60;;;;;;;;;;20851236;28;20233;-68
2023/07/27 05:35:26;;;;;;;0.90;0.60;;;;;;;;;;20846840;28;20225;-68
2023/07/27 05:45:28;;;;;;;0.97;0.60;;;;;;;;;;20855634;28;20234;-68
2023/07/27 05:55:30;;;;;;;1.40;0.40;;;;;;;;;;20845732;28;20288;-68
2023/07/27 06:05:33;;;;;;;0.87;0.60;;;;;;;;;;20951681;28;20256;-68
2023/07/27 06:15:34;;;;;;;0.57;0.40;;;;;;;;;;20939574;28;20237;-68
2023/07/27 06:25:36;;;;;;;0.77;0.50;;;;;;;;;;20934370;28;20255;-68
2023/07/27 06:35:38;;;;;;;1.03;0.50;;;;;;;;;;20926395;28;20267;-69
2023/07/27 06:45:40;;;;;;;2.63;0.53;;;;;;;;;;20929366;28;20700;-68
2023/07/27 06:55:42;;;;;;;1.00;0.53;;;;;;;;;;20884114;28;20213;-68
2023/07/27 07:05:44;;;;;;;1.10;0.63;;;;;;;;;;20851054;28;20291;-68
2023/07/27 07:15:46;;;;;;;0.90;0.70;;;;;;;;;;20851028;28;20210;-69
2023/07/27 07:25:48;;;;;;;0.90;0.50;;;;;;;;;;20839057;28;20242;-69
2023/07/27 07:35:50;;;;;;;1.73;0.73;;;;;;;;;;20841972;28;20280;-68
2023/07/27 07:45:51;;;;;;;1.37;0.50;;;;;;;;;;20822673;28;20294;-68
2023/07/27 07:55:53;;;;;;;1.37;0.60;;;;;;;;;;20818342;28;20214;-68
2023/07/27 08:05:55;;;;;;;0.80;0.50;;;;;;;;;;20916597;28;20245;-68
2023/07/27 08:15:57;;;;;;;1.00;0.50;;;;;;;;;;20876114;28;20220;-68
2023/07/27 08:26:00;;;;;;;0.70;0.50;;;;;;;;;;20877267;28;20229;-68
2023/07/27 08:36:02;;;;;;;1.43;0.60;;;;;;;;;;20894137;28;20243;-69
2023/07/27 08:46:05;;;;;;;1.30;0.50;;;;;;;;;;20902494;28;20295;-69
2023/07/27 08:56:07;;;;;;;1.30;0.63;;;;;;;;;;20897039;28;20274;-69
2023/07/27 09:06:08;;;;;;;1.23;0.60;;;;;;;;;;20886455;23;20225;-74
2023/07/27 09:16:10;;;;;;;2.90;0.60;;;;;;;;;;20930129;28;20264;-74
2023/07/27 09:26:13;;;;;;;1.57;0.70;;;;;;;;;;20867583;28;20639;-74
2023/07/27 09:36:14;;;;;;;0.87;0.60;;;;;;;;;;20887057;28;20221;-75
2023/07/27 09:46:22;;;;;;;1.00;0.70;;;17.50;99.90;;;;;;20884030;28;20217;-75
2023/07/27 09:56:24;;;;;;;1.17;0.60;;;;;;;;;;20919174;28;20205;-73
2023/07/27 10:06:26;;;;;;;1.20;0.57;;;;;;;;;;20891353;28;20635;-73
2023/07/27 10:16:29;;;;;;;1.70;0.80;;;;;;;;;;20896004;28;20549;-72
2023/07/27 10:26:42;;;;;;;1.20;0.70;;;;;;;;;;20877287;28;20696;-73
2023/07/27 10:36:47;;;;;;;1.17;0.60;;;;;;;;;;20882286;28;20554;-73
2023/07/27 10:46:54;;;;;;;1.17;0.70;;;;;;;;;;20887706;28;20210;-73
2023/07/27 10:56:56;;;;;;;1.50;0.97;;;;;;;;;;20904738;28;20210;-73
2023/07/27 11:06:58;;;;;;;1.57;0.80;;;;;;;;;;20882403;28;20226;-73
2023/07/27 11:16:59;;;;;;;1.13;0.60;;;;;;;;;;20895446;28;20213;-73
2023/07/27 11:27:01;;;;;;;1.23;0.70;;;;;;;;;;20890720;28;20218;-73
2023/07/27 11:37:03;;;;;;;1.20;0.67;;;;;;;;;;20891338;28;20701;-73
2023/07/27 11:47:05;;;;;;;0.97;0.73;;;;;;;;;;20882811;28;20213;-72
2023/07/27 11:57:07;;;;;;;1.23;0.70;;;;;;;;;;20868955;28;20276;-73
2023/07/27 12:07:10;;;;;;;1.60;0.77;;;18.00;99.90;;;;;;20875590;28;20252;-72
2023/07/27 12:17:12;;;;;;;1.40;0.90;;;;;;;;;;20887150;28;20210;-72
2023/07/27 12:27:14;;;;;;;1.37;1.13;;;;;;;;;;20882345;28;20222;-72
2023/07/27 12:37:15;;;;;;;1.00;0.67;;;;;;;;;;20884912;28;20263;-72
2023/07/27 12:47:17;;;;;;;1.43;0.70;;;;;;;;;;20887811;28;20271;-73
2023/07/27 12:57:22;;;;;;;1.23;0.80;;;;;;;;;;20918027;28;20213;-73
2023/07/27 13:07:24;;;;;;;1.33;1.00;;;;;;;;;;20889452;28;20213;-72
2023/07/27 13:17:25;;;;;;;0.90;0.67;;;;;;;;;;20900592;28;20221;-72
2023/07/27 13:27:27;;;;;;;1.20;0.80;;;;;;;;;;20900947;28;20215;-73
2023/07/27 13:37:31;;;;;;;1.50;1.13;;;;;;;;;;20918202;28;20241;-74
2023/07/27 13:47:33;;;;;;;1.20;0.80;;;;;;;;;;20898764;28;20225;-74
2023/07/27 13:57:35;;;;;;;1.77;1.10;;;;;;;;;;20929446;28;20187;-74
2023/07/27 14:07:37;;;;;;;1.77;1.10;;;;;;;;;;20918376;28;20217;-74
2023/07/27 14:17:39;;;;;;;1.00;0.70;;;;;;;;;;20900672;28;20210;-74
2023/07/27 14:27:41;;;;;;;1.73;0.90;;;;;;;;;;20888554;28;20214;-74
2023/07/27 14:37:42;;;;;;;1.77;0.70;;;;;;;;;;20902134;28;20187;-73
2023/07/27 14:47:44;;;;;;;0.80;0.60;;;;;;;;;;20917503;28;20790;-73
2023/07/27 14:57:46;;;;;;;1.17;0.60;;;;;;;;;;20916099;28;20216;-74
2023/07/27 15:07:49;;;;;;;1.23;0.70;;;;;;;;;;20914059;28;20226;-74
2023/07/27 15:17:50;;;;;;;1.20;0.90;;;;;;;;;;20894243;28;20304;-74
2023/07/27 15:27:52;;;;;;;1.40;0.70;;;;;;;;;;20876784;28;20319;-74
2023/07/27 15:37:54;;;;;;;1.30;0.50;;;;;;;;;;20938561;28;20202;-74
2023/07/27 15:47:56;;;;;;;0.97;0.63;;;;;;;;;;20892586;28;20214;-75
2023/07/27 15:57:58;;;;;;;0.90;0.50;;;;;;;;;;20901771;28;20292;-74
2023/07/27 16:07:59;;;;;;;0.57;0.50;;;;;;;;;;20887788;28;20567;-74
2023/07/27 16:18:01;;;;;;;1.17;0.67;;;;;;;;;;20920656;28;20271;-75
2023/07/27 16:28:03;;;;;;;0.87;0.57;;;;;;;;;;20906857;28;20215;-75
2023/07/27 16:38:05;;;;;;;1.07;0.77;;;;;;;;;;20902603;28;20241;-74
2023/07/27 16:48:07;;;;;;;1.07;0.80;;;;;;;;;;20892215;28;20276;-74
2023/07/27 16:58:08;;;;;;;1.30;0.77;;;;;;;;;;20929479;28;20221;-74
2023/07/27 17:08:10;;;;;;;1.97;0.83;;;;;;;;;;20892585;28;20206;-74
2023/07/27 17:18:12;;;;;;;1.10;0.70;;;;;;;;;;20887225;28;20207;-74
2023/07/27 17:28:14;;;;;;;1.10;0.70;;;;;;;;;;20924711;28;20216;-75
2023/07/27 17:38:15;;;;;;;1.70;0.67;;;;;;;;;;20906121;28;20262;-75
2023/07/27 17:48:21;;;;;;;1.70;0.90;;;19.40;99.90;;;;;;20889689;28;20238;-75
2023/07/27 17:58:23;;;;;;;0.80;0.63;;;;;;;;;;20903030;28;20567;-75
2023/07/27 18:08:25;;;;;;;1.40;0.67;;;;;;;;;;20902263;28;20709;-74
2023/07/27 18:18:28;;;;;;;1.13;0.60;;;;;;;;;;20904222;28;20597;-74
2023/07/27 18:28:30;;;;;;;1.27;0.80;;;;;;;;;;20900970;28;20285;-75
2023/07/27 18:38:32;;;;;;;1.33;0.83;;;;;;;;;;20901049;28;20273;-74
2023/07/27 18:48:33;;;;;;;1.57;0.80;;;;;;;;;;20896954;28;20219;-74
2023/07/27 18:58:35;;;;;;;1.40;0.77;;;;;;;;;;20900187;28;20219;-73
2023/07/27 19:08:37;;;;;;;1.13;0.57;;;;;;;;;;20906630;28;20227;-73
2023/07/27 19:18:39;;;;;;;1.20;0.70;;;;;;;;;;20884396;28;20665;-75
2023/07/27 19:28:40;;;;;;;0.70;0.50;;;;;;;;;;20874333;28;20281;-73
2023/07/27 19:38:43;;;;;;;1.67;0.60;;;;;;;;;;20892746;28;20707;-74
2023/07/27 19:48:45;;;;;;;0.80;0.60;;;;;;;;;;20922546;28;20248;-73
2023/07/27 19:58:48;;;;;;;1.20;0.60;;;;;;;;;;20864213;28;20690;-74
2023/07/27 20:08:49;;;;;;;0.87;0.50;;;;;;;;;;20910448;28;20573;-74
2023/07/27 20:18:51;;;;;;;0.93;0.60;;;;;;;;;;20928006;28;20276;-74
2023/07/27 20:28:53;;;;;;;0.90;0.60;;;;;;;;;;20889422;28;20270;-73
2023/07/27 20:38:59;;;;;;;1.50;0.63;;;;;;;;;;20876089;28;20267;-73
2023/07/27 20:49:00;;;;;;;1.00;0.70;;;;;;;;;;20907884;28;20247;-73
2023/07/27 20:59:03;;;;;;;0.90;0.50;;;;;;;;;;20927177;28;20284;-73
2023/07/27 21:09:05;;;;;;;0.63;0.50;;;;;;;;;;20878997;28;20597;-74
2023/07/27 21:19:06;;;;;;;0.73;0.53;;;;;;;;;;20947648;23;20616;-69
2023/07/27 21:29:08;;;;;;;0.90;0.60;;;;;;;;;;20912321;28;20593;-70
2023/07/27 21:39:15;;;;;;;0.53;0.40;;;;;;;;;;20933405;28;20589;-70
2023/07/27 21:49:17;;;;;;;1.23;0.60;;;;;;;;;;20900994;28;20234;-70
2023/07/27 21:59:19;;;;;;;0.83;0.50;;;;;;;;;;20895212;28;20238;-70
2023/07/27 22:09:21;;;;;;;0.80;0.60;;;;;;;;;;20922607;28;20238;-70
2023/07/27 22:19:23;;;;;;;1.20;0.70;;;;;;;;;;20872904;28;20239;-71
2023/07/27 22:29:24;;;;;;;0.93;0.53;;;;;;;;;;20871236;28;20231;-70
2023/07/27 22:39:29;;;;;;;0.50;0.40;;;;;;;;;;20874288;28;20593;-70
2023/07/27 22:49:31;;;;;;;0.93;0.57;;;;;;;;;;20881214;28;20778;-70
2023/07/27 22:59:33;;;;;;;1.00;0.50;;;;;;;;;;20890198;28;20227;-70
2023/07/27 23:09:34;;;;;;;0.63;0.43;;;;;;;;;;20910086;28;20218;-70
2023/07/27 23:19:36;;;;;;;1.03;0.50;;;;;;;;;;20903741;28;20288;-70
2023/07/27 23:29:39;;;;;;;0.80;0.50;;;;;;;;;;20919220;28;20242;-70
2023/07/27 23:39:40;;;;;;;0.53;0.37;;;;;;;;;;20872403;28;20221;-70
2023/07/27 23:49:42;;;;;;;0.70;0.40;;;;;;;;;;20875154;28;20698;-70
2023/07/27 23:59:44;;;;;;;0.40;0.40;;;;;;;;;;20891801;28;20220;-70
